Time;durP1;ratioP1;P1;durP2;ratioP2;P2;SDS_P1;SDS_P2;PMS_P1;PMS_P2;Temp;Humidity;BMP_temperature;BMP_pressure;BME280_temperature;BME280_humidity;BME280_pressure;Samples;Min_cycle;Max_cycle;Signal;HPM_P1;HPM_P2
2023/09/30 00:01:39;;;;;;;9.93;3.63;;;;;;;12.27;84.06;102406.84;5036954;28;20024;-68
2023/09/30 00:04:05;;;;;;;6.00;3.78;;;;;;;12.40;84.22;102418.03;5051674;28;20032;-68
2023/09/30 00:06:30;;;;;;;10.20;4.55;;;;;;;12.41;83.98;102409.19;5033473;28;20649;-68
2023/09/30 00:08:56;;;;;;;11.05;5.57;;;;;;;12.37;84.34;102421.66;5042523;28;20111;-68
2023/09/30 00:11:21;;;;;;;9.57;5.28;;;;;;;12.40;84.45;102423.34;5043208;28;20111;-69
2023/09/30 00:13:49;;;;;;;11.75;5.78;;;;;;;12.42;84.72;102414.47;5035683;28;20028;-68
2023/09/30 00:16:14;;;;;;;7.95;4.68;;;;;;;12.42;85.84;102410.94;5038987;28;20392;-68
2023/09/30 00:18:40;;;;;;;8.65;5.03;;;;;;;12.43;85.05;102424.16;5038387;28;20025;-68
2023/09/30 00:21:06;;;;;;;10.45;4.47;;;;;;;12.55;85.08;102422.16;5051774;28;20028;-68
2023/09/30 00:23:31;;;;;;;9.95;5.18;;;;;;;12.62;84.68;102424.59;5044885;28;20043;-69
2023/09/30 00:25:56;;;;;;;11.50;5.65;;;;;;;12.60;84.54;102430.88;5046692;28;20055;-67
2023/09/30 00:28:21;;;;;;;9.57;6.10;;;;;;;12.48;85.12;102437.31;5037468;28;20029;-67
2023/09/30 00:30:47;;;;;;;8.30;5.35;;;;;;;12.45;85.14;102422.38;5048917;28;20025;-67
2023/09/30 00:33:13;;;;;;;9.80;5.15;;;;;;;12.51;85.35;102424.88;5048428;28;20116;-66
2023/09/30 00:35:38;;;;;;;9.63;6.47;;;;;;;12.64;85.29;102412.19;5048706;28;20024;-66
2023/09/30 00:38:04;;;;;;;12.13;7.40;;;;;;;12.73;86.02;102411.09;5040525;28;20398;-66
2023/09/30 00:40:29;;;;;;;9.20;5.70;;;;;;;12.76;84.99;102432.25;5049725;28;20032;-66
2023/09/30 00:42:55;;;;;;;11.65;6.20;;;;;;;12.80;85.20;102444.53;5035966;28;20052;-66
2023/09/30 00:45:21;;;;;;;12.50;7.00;;;;;;;12.82;85.33;102448.00;5048305;28;20065;-67
2023/09/30 00:47:46;;;;;;;10.55;6.18;;;;;;;12.82;85.03;102449.81;5036623;28;20545;-66
2023/09/30 00:50:13;;;;;;;10.45;6.53;;;;;;;12.84;84.72;102446.22;5045577;28;20029;-67
2023/09/30 00:52:40;;;;;;;8.90;6.10;;;;;;;12.83;85.25;102439.16;5041178;28;20033;-67
2023/09/30 00:55:06;;;;;;;11.93;6.20;;;;;;;12.85;84.97;102433.81;5056451;28;20032;-67
2023/09/30 00:57:33;;;;;;;13.02;7.20;;;;;;;12.87;84.93;102424.00;5044370;28;20051;-67
2023/09/30 01:00:00;;;;;;;9.55;6.10;;;;;;;12.83;85.13;102433.00;5051224;28;20108;-67
2023/09/30 01:02:26;;;;;;;14.35;7.20;;;;;;;12.80;85.39;102439.22;5036533;28;20654;-67
2023/09/30 01:04:52;;;;;;;9.63;5.63;;;;;;;12.69;85.28;102435.97;5048636;28;20053;-67
2023/09/30 01:07:17;;;;;;;10.63;6.55;;;;;;;12.58;85.46;102443.28;5038314;28;20053;-67
2023/09/30 01:09:43;;;;;;;8.70;6.53;;;;;;;12.54;85.54;102447.78;5051268;28;20108;-66
2023/09/30 01:12:09;;;;;;;11.18;6.85;;;;;;;12.51;85.77;102445.22;5049469;28;20231;-67
2023/09/30 01:14:35;;;;;;;11.20;6.47;;;;;;;12.49;86.30;102444.38;5033138;28;20025;-67
2023/09/30 01:17:01;;;;;;;11.32;7.45;;;;;;;12.41;86.33;102436.59;5046428;28;20024;-67
2023/09/30 01:19:27;;;;;;;13.32;7.05;;;;;;;12.40;86.10;102445.47;5039112;28;20029;-67
2023/09/30 01:21:56;;;;;;;19.05;7.57;;;;;;;12.37;86.78;102447.31;5047344;28;20021;-67
2023/09/30 01:24:21;;;;;;;12.45;6.25;;;;;;;12.36;86.61;102454.41;5051430;28;20508;-69
2023/09/30 01:26:47;;;;;;;10.80;6.10;;;;;;;12.37;86.00;102472.03;5041774;28;20125;-69
2023/09/30 01:29:12;;;;;;;12.73;6.75;;;;;;;12.43;86.05;102479.00;5047668;28;20032;-67
2023/09/30 01:31:38;;;;;;;9.63;6.65;;;;;;;12.45;85.58;102477.16;5042377;28;20037;-67
2023/09/30 01:34:04;;;;;;;10.95;7.15;;;;;;;12.45;86.40;102479.81;5042967;28;20029;-66
2023/09/30 01:36:29;;;;;;;13.18;6.95;;;;;;;12.42;85.68;102475.47;5047519;28;20394;-69
2023/09/30 01:38:54;;;;;;;7.18;5.78;;;;;;;12.47;85.97;102470.06;5040309;28;20116;-69
2023/09/30 01:41:20;;;;;;;11.45;5.63;;;;;;;12.47;85.42;102480.69;5041824;28;20098;-68
2023/09/30 01:43:45;;;;;;;8.57;6.32;;;;;;;12.48;85.15;102469.16;5042453;28;20036;-68
2023/09/30 01:46:10;;;;;;;10.27;6.55;;;;;;;12.48;85.45;102470.03;5039280;28;20553;-68
2023/09/30 01:48:35;;;;;;;15.77;7.63;;;;;;;12.49;85.07;102449.66;5043949;28;20044;-68
2023/09/30 01:51:01;;;;;;;14.60;7.47;;;;;;;12.49;85.99;102449.66;5042006;28;20552;-69
2023/09/30 01:53:26;;;;;;;11.60;6.95;;;;;;;12.48;85.30;102446.16;5038239;28;20496;-69
2023/09/30 01:55:51;;;;;;;10.68;6.70;;;;;;;12.50;86.15;102448.78;5040320;28;20017;-69
2023/09/30 01:58:17;;;;;;;9.77;6.10;;;;;;;12.49;84.93;102452.31;5043915;28;20036;-69
2023/09/30 02:00:42;;;;;;;11.88;6.68;;;;;;;12.49;85.17;102455.84;5040547;28;20021;-68
2023/09/30 02:03:08;;;;;;;11.40;6.60;;;;;;;12.49;85.66;102453.19;5046327;28;20385;-68
2023/09/30 02:05:33;;;;;;;9.95;6.97;;;;;;;12.48;85.93;102447.94;5045470;28;20696;-68
2023/09/30 02:07:58;;;;;;;13.52;6.47;;;;;;;12.52;84.90;102450.47;5045322;28;20087;-68
2023/09/30 02:10:24;;;;;;;13.13;6.85;;;;;;;12.47;84.89;102454.16;5041647;28;20272;-68
2023/09/30 02:12:49;;;;;;;10.20;6.63;;;;;;;12.47;85.19;102455.03;5039762;28;20120;-68
2023/09/30 02:15:14;;;;;;;12.38;6.68;;;;;;;12.49;85.48;102455.84;5047467;28;20511;-68
2023/09/30 02:17:40;;;;;;;10.10;6.53;;;;;;;12.53;85.06;102467.25;5043057;28;20484;-68
2023/09/30 02:20:12;;;;;;;12.77;7.57;;;;;;;12.53;85.55;102469.91;5033542;28;20025;-68
2023/09/30 02:22:38;;;;;;;16.35;8.60;;;;;;;12.52;85.52;102473.47;5051489;28;20114;-68
2023/09/30 02:25:07;;;;;;;10.45;6.68;;;;;;;12.52;85.87;102465.53;5042348;28;20765;-68
2023/09/30 02:27:32;;;;;;;13.20;7.88;;;;;;;12.50;86.13;102470.88;5041250;28;20178;-68
2023/09/30 02:29:57;;;;;;;14.88;7.70;;;;;;;12.51;86.03;102459.34;5043139;28;20024;-68
2023/09/30 02:32:24;;;;;;;15.18;9.10;;;;;;;12.52;86.75;102462.88;5037581;28;20048;-68
2023/09/30 02:34:50;;;;;;;16.20;8.10;;;;;;;12.52;86.48;102453.13;5042253;28;20049;-68
2023/09/30 02:37:15;;;;;;;14.27;7.80;;;;;;;12.48;86.04;102451.44;5035290;28;20159;-68
2023/09/30 02:39:41;;;;;;;14.82;7.80;;;;;;;12.45;85.77;102458.59;5034965;28;20537;-68
2023/09/30 02:42:06;;;;;;;12.93;7.82;;;;;;;12.45;85.27;102463.91;5041218;28;20028;-68
2023/09/30 02:44:31;;;;;;;15.55;8.57;;;;;;;12.41;85.70;102473.72;5035346;28;20035;-68
2023/09/30 02:46:56;;;;;;;13.43;7.88;;;;;;;12.39;85.83;102456.97;5036876;28;20034;-67
2023/09/30 02:49:22;;;;;;;10.93;7.10;;;;;;;12.37;86.17;102455.25;5030013;28;20029;-66
2023/09/30 02:51:47;;;;;;;13.73;7.40;;;;;;;12.38;85.78;102451.69;5039140;28;20500;-67
2023/09/30 02:54:15;;;;;;;13.45;7.90;;;;;;;12.35;85.45;102457.94;5044389;28;20033;-67
2023/09/30 02:56:40;;;;;;;15.38;7.43;;;;;;;12.32;86.17;102446.53;5029955;28;20021;-66
2023/09/30 02:59:07;;;;;;;13.82;7.55;;;;;;;12.30;85.50;102451.84;5031377;28;20450;-67
2023/09/30 03:01:32;;;;;;;18.42;8.05;;;;;;;12.23;86.00;102456.44;5034044;28;20020;-66
2023/09/30 03:03:57;;;;;;;11.90;7.20;;;;;;;12.09;86.64;102453.19;5044824;28;20404;-66
2023/09/30 03:06:23;;;;;;;15.40;8.45;;;;;;;12.01;87.45;102455.13;5027200;28;20143;-66
2023/09/30 03:08:48;;;;;;;12.23;7.03;;;;;;;11.96;87.07;102465.81;5032747;28;20069;-66
2023/09/30 03:11:13;;;;;;;25.17;7.05;;;;;;;12.05;87.33;102462.09;5031916;28;20025;-66
2023/09/30 03:13:41;;;;;;;12.27;7.05;;;;;;;11.94;87.17;102464.13;5030079;28;20052;-67
2023/09/30 03:16:06;;;;;;;10.13;6.82;;;;;;;12.00;86.67;102462.19;5033921;28;20026;-67
2023/09/30 03:18:31;;;;;;;13.32;6.72;;;;;;;12.04;86.24;102465.66;5045979;28;20087;-67
2023/09/30 03:21:01;;;;;;;11.38;7.32;;;;;;;12.07;86.52;102468.25;5031958;28;20035;-67
2023/09/30 03:23:30;;;;;;;10.82;5.57;;;;;;;12.11;86.46;102471.72;5036352;28;20036;-66
2023/09/30 03:25:59;;;;;;;10.65;7.32;;;;;;;12.05;86.32;102458.59;5039181;28;20028;-66
2023/09/30 03:28:25;;;;;;;11.85;7.70;;;;;;;12.12;86.33;102449.59;5027569;28;20021;-67
2023/09/30 03:30:51;;;;;;;13.35;7.97;;;;;;;12.10;86.60;102444.31;5028142;28;20107;-66
2023/09/30 03:33:17;;;;;;;12.48;8.13;;;;;;;12.07;86.08;102438.22;5042720;28;20025;-67
2023/09/30 03:35:42;;;;;;;15.20;8.05;;;;;;;12.07;86.69;102440.84;5046816;28;20032;-66
2023/09/30 03:38:09;;;;;;;12.38;8.35;;;;;;;12.08;86.33;102438.19;5038441;28;20124;-66
2023/09/30 03:40:38;;;;;;;9.57;6.35;;;;;;;12.08;86.77;102442.63;5042261;28;20033;-67
2023/09/30 03:43:05;;;;;;;13.25;7.10;;;;;;;12.05;86.05;102448.84;5025400;28;20252;-67
2023/09/30 03:45:32;;;;;;;11.30;6.50;;;;;;;12.05;85.83;102442.69;5028146;28;20033;-67
2023/09/30 03:47:58;;;;;;;12.25;7.22;;;;;;;12.02;85.81;102446.25;5040979;28;20039;-67
2023/09/30 03:50:24;;;;;;;11.90;6.90;;;;;;;12.02;85.78;102448.91;5034206;28;20033;-66
2023/09/30 03:52:50;;;;;;;10.80;6.60;;;;;;;12.02;86.15;102454.22;5038728;28;20419;-67
2023/09/30 03:55:17;;;;;;;11.80;6.63;;;;;;;12.04;86.20;102449.78;5044670;28;20092;-67
2023/09/30 03:57:47;;;;;;;14.52;7.30;;;;;;;12.02;85.81;102454.22;5026931;28;20021;-68
2023/09/30 04:00:16;;;;;;;13.80;7.03;;;;;;;12.01;86.40;102441.88;5033999;28;20041;-68
2023/09/30 04:02:42;;;;;;;13.93;8.10;;;;;;;11.97;86.03;102445.47;5040426;28;21556;-69
2023/09/30 04:05:11;;;;;;;10.02;6.65;;;;;;;11.97;86.34;102438.41;5047234;28;20706;-68
2023/09/30 04:07:36;;;;;;;10.35;6.78;;;;;;;12.03;85.64;102445.38;5047895;28;20128;-66
2023/09/30 04:10:02;;;;;;;11.20;7.03;;;;;;;12.02;86.11;102443.59;5044369;28;20556;-67
2023/09/30 04:12:28;;;;;;;10.43;6.32;;;;;;;12.03;86.38;102444.47;5036212;28;20035;-67
2023/09/30 04:14:53;;;;;;;12.63;6.80;;;;;;;11.98;86.38;102441.91;5028788;28;20083;-66
2023/09/30 04:17:19;;;;;;;12.82;8.05;;;;;;;11.96;86.02;102449.03;5032168;28;20473;-67
2023/09/30 04:19:45;;;;;;;12.50;6.85;;;;;;;11.92;86.53;102457.94;5044754;28;20079;-66
2023/09/30 04:22:11;;;;;;;13.25;7.00;;;;;;;11.92;86.79;102445.56;5049945;28;20025;-67
2023/09/30 04:24:36;;;;;;;16.75;7.75;;;;;;;11.87;87.00;102442.16;5043874;28;20037;-67
2023/09/30 04:27:04;;;;;;;13.50;7.60;;;;;;;11.79;87.28;102441.38;5034922;28;20515;-66
2023/09/30 04:29:29;;;;;;;12.07;6.78;;;;;;;11.79;87.30;102443.16;5033017;28;20024;-66
2023/09/30 04:31:56;;;;;;;9.82;6.20;;;;;;;11.75;86.55;102450.31;5032121;28;20087;-66
2023/09/30 04:34:21;;;;;;;11.95;6.45;;;;;;;11.72;86.53;102451.25;5048633;28;20047;-66
2023/09/30 04:36:47;;;;;;;8.82;5.53;;;;;;;11.78;86.04;102452.03;5036667;28;20165;-66
2023/09/30 04:39:13;;;;;;;7.90;6.10;;;;;;;11.74;86.26;102456.50;5047501;28;20740;-66
2023/09/30 04:41:41;;;;;;;12.18;5.25;;;;;;;11.69;86.32;102461.88;5037200;28;20037;-67
2023/09/30 04:44:09;;;;;;;13.27;5.63;;;;;;;11.69;86.99;102459.22;5031688;28;20448;-67
2023/09/30 04:46:35;;;;;;;9.05;5.78;;;;;;;11.71;86.60;102461.88;5024301;28;20501;-66
2023/09/30 04:49:02;;;;;;;15.68;7.53;;;;;;;11.71;87.60;102462.75;5044886;28;20028;-67
2023/09/30 04:51:28;;;;;;;12.43;6.90;;;;;;;11.73;87.23;102462.72;5036225;28;20037;-67
2023/09/30 04:53:55;;;;;;;7.18;5.25;;;;;;;11.74;86.20;102467.97;5039070;28;20017;-67
2023/09/30 04:56:20;;;;;;;12.25;7.43;;;;;;;11.79;84.55;102467.88;5032071;28;20029;-67
2023/09/30 04:58:46;;;;;;;11.30;7.07;;;;;;;11.73;86.08;102463.56;5048892;28;20028;-67
2023/09/30 05:01:12;;;;;;;15.13;6.32;;;;;;;11.76;84.76;102470.59;5046113;28;20028;-66
2023/09/30 05:03:38;;;;;;;13.25;7.80;;;;;;;11.75;86.16;102475.03;5046323;28;20024;-66
2023/09/30 05:06:03;;;;;;;11.00;5.95;;;;;;;11.71;86.44;102478.63;5044625;28;20099;-66
2023/09/30 05:08:29;;;;;;;7.78;5.63;;;;;;;11.72;85.60;102475.09;5038889;28;20037;-68
2023/09/30 05:10:55;;;;;;;8.30;6.50;;;;;;;11.75;85.27;102477.69;5038851;28;20060;-69
2023/09/30 05:13:21;;;;;;;9.98;5.72;;;;;;;11.69;85.67;102480.44;5037192;28;20029;-68
2023/09/30 05:15:46;;;;;;;18.23;5.80;;;;;;;11.61;85.15;102485.03;5040922;28;20025;-68
2023/09/30 05:18:11;;;;;;;153.77;8.60;;;;;;;11.49;86.16;102490.53;5043663;28;20029;-67
2023/09/30 05:20:38;;;;;;;92.57;7.15;;;;;;;11.39;86.04;102487.16;5049213;28;20037;-66
2023/09/30 05:23:04;;;;;;;8.75;5.30;;;;;;;11.41;86.16;102480.06;5044845;28;20032;-67
2023/09/30 05:25:29;;;;;;;10.82;5.95;;;;;;;11.42;86.76;102483.56;5044984;28;20063;-67
2023/09/30 05:27:54;;;;;;;6.72;4.70;;;;;;;11.43;86.30;102488.00;5050129;28;20059;-67
2023/09/30 05:30:20;;;;;;;6.85;4.97;;;;;;;11.41;86.17;102484.47;5050842;28;20047;-67
2023/09/30 05:32:46;;;;;;;8.13;5.07;;;;;;;11.39;86.54;102483.63;5047993;28;20027;-67
2023/09/30 05:35:12;;;;;;;7.68;3.97;;;;;;;11.39;85.81;102484.50;5043657;28;20840;-67
2023/09/30 05:37:42;;;;;;;4.88;3.70;;;;;;;11.32;86.26;102489.94;5040896;28;20017;-67
2023/09/30 05:40:26;;;;;;;7.13;5.28;;;;;;;11.23;86.63;102489.16;5051892;28;20033;-67
2023/09/30 05:42:58;;;;;;;11.00;5.57;;;;;;;11.26;87.11;102498.84;5038043;28;20021;-67
2023/09/30 05:45:23;;;;;;;5.90;4.38;;;;;;;11.30;86.25;102489.09;5043227;28;20401;-67
2023/09/30 05:47:49;;;;;;;7.80;4.93;;;;;;;11.28;86.26;102496.16;5042264;28;20032;-67
2023/09/30 05:50:16;;;;;;;12.85;7.38;;;;;;;11.36;87.38;102495.16;5043933;28;20044;-67
2023/09/30 05:52:42;;;;;;;10.95;6.45;;;;;;;11.37;87.00;102496.03;5047117;28;20044;-66
2023/09/30 05:55:08;;;;;;;12.90;7.80;;;;;;;11.36;87.34;102499.56;5045232;28;20024;-67
2023/09/30 05:57:35;;;;;;;14.20;7.88;;;;;;;11.47;87.21;102497.59;5044357;28;20087;-67
2023/09/30 06:00:00;;;;;;;17.75;9.93;;;;;;;11.61;88.07;102497.34;5042730;28;20065;-67
2023/09/30 06:02:26;;;;;;;18.70;10.90;;;;;;;11.74;88.05;102499.75;5049151;28;20069;-67
2023/09/30 06:04:53;;;;;;;13.25;8.95;;;;;;;11.84;87.44;102504.91;5048407;28;20495;-67
2023/09/30 06:07:19;;;;;;;13.90;8.30;;;;;;;11.94;87.62;102507.41;5050574;28;20042;-66
2023/09/30 06:09:48;;;;;;;14.68;8.00;;;;;;;11.95;88.30;102511.78;5063357;28;20341;-67
2023/09/30 06:12:13;;;;;;;11.18;7.32;;;;;;;12.04;86.81;102505.44;5032900;28;20772;-66
2023/09/30 06:14:39;;;;;;;8.60;5.97;;;;;;;12.14;88.75;102507.00;5044874;28;20499;-67
2023/09/30 06:17:05;;;;;;;17.30;9.88;;;;;;;12.11;88.06;102499.09;5051160;28;20107;-67
2023/09/30 06:19:30;;;;;;;13.00;8.82;;;;;;;12.11;87.18;102496.44;5043087;28;20120;-67
2023/09/30 06:21:56;;;;;;;13.50;8.07;;;;;;;12.17;86.91;102500.75;5044302;28;20034;-67
2023/09/30 06:24:21;;;;;;;12.00;8.70;;;;;;;12.24;87.40;102497.06;5039083;28;20025;-67
2023/09/30 06:26:48;;;;;;;18.80;10.57;;;;;;;12.27;87.35;102502.31;5037027;28;20032;-67
2023/09/30 06:29:14;;;;;;;17.25;9.13;;;;;;;12.34;87.91;102495.97;5044800;28;20032;-67
2023/09/30 06:31:39;;;;;;;18.67;9.27;;;;;;;12.39;88.12;102498.53;5040839;28;20056;-67
2023/09/30 06:34:04;;;;;;;13.82;8.23;;;;;;;12.42;87.29;102496.69;5047687;28;20036;-67
2023/09/30 06:36:30;;;;;;;17.08;8.82;;;;;;;12.45;87.01;102503.69;5040486;28;20029;-67
2023/09/30 06:38:55;;;;;;;16.63;9.60;;;;;;;12.46;87.00;102508.13;5044659;28;20442;-67
2023/09/30 06:41:21;;;;;;;15.20;9.40;;;;;;;12.51;87.10;102514.19;5042169;28;20029;-68
2023/09/30 06:43:46;;;;;;;17.10;8.88;;;;;;;12.55;87.37;102512.34;5034981;28;20393;-68
2023/09/30 06:46:13;;;;;;;14.23;9.23;;;;;;;12.55;87.41;102507.91;5040893;28;20193;-67
2023/09/30 06:48:40;;;;;;;13.20;8.07;;;;;;;12.59;87.46;102501.66;5032197;28;20025;-68
2023/09/30 06:51:05;;;;;;;11.98;8.05;;;;;;;12.64;87.44;102512.16;5040263;28;20040;-67
2023/09/30 06:53:31;;;;;;;14.32;8.68;;;;;;;12.66;87.37;102515.63;5043199;28;20021;-67
2023/09/30 06:55:56;;;;;;;17.10;9.25;;;;;;;12.69;87.00;102521.75;5032052;28;20489;-67
2023/09/30 06:58:21;;;;;;;15.82;9.57;;;;;;;12.76;86.91;102527.78;5034073;28;20052;-67
2023/09/30 07:00:51;;;;;;;15.80;9.10;;;;;;;12.80;87.22;102540.09;5035358;28;20033;-67
2023/09/30 07:03:17;;;;;;;20.27;10.07;;;;;;;12.84;87.92;102552.38;5038938;28;20029;-67
2023/09/30 07:05:43;;;;;;;18.00;10.35;;;;;;;12.93;88.19;102552.19;5042561;28;20111;-67
2023/09/30 07:08:09;;;;;;;19.73;10.02;;;;;;;13.05;88.21;102555.44;5031454;28;20462;-68
2023/09/30 07:10:34;;;;;;;18.13;10.43;;;;;;;13.19;89.24;102558.66;5038959;28;20037;-67
2023/09/30 07:13:02;;;;;;;20.45;9.80;;;;;;;13.29;88.33;102554.94;5032681;28;20433;-67
2023/09/30 07:15:28;;;;;;;19.88;10.65;;;;;;;13.39;88.62;102558.25;5040482;28;20029;-67
2023/09/30 07:17:53;;;;;;;18.60;11.23;;;;;;;13.45;88.32;102558.06;5037720;28;20056;-69
2023/09/30 07:20:19;;;;;;;23.50;11.82;;;;;;;13.54;88.94;102557.84;5044103;28;20032;-68
2023/09/30 07:22:45;;;;;;;21.42;11.90;;;;;;;13.64;88.75;102547.84;5044699;28;20033;-68
2023/09/30 07:25:10;;;;;;;20.70;10.23;;;;;;;13.77;88.58;102550.16;5039429;28;20025;-68
2023/09/30 07:27:35;;;;;;;23.38;10.68;;;;;;;13.90;88.79;102563.13;5039083;28;20469;-68
2023/09/30 07:30:01;;;;;;;22.02;10.57;;;;;;;13.98;88.53;102577.09;5046990;28;20037;-68
2023/09/30 07:32:26;;;;;;;21.27;11.32;;;;;;;14.05;88.46;102599.97;5024052;28;20028;-68
2023/09/30 07:34:51;;;;;;;20.77;10.77;;;;;;;14.14;88.63;102601.50;5035710;28;20075;-68
2023/09/30 07:37:18;;;;;;;22.05;11.63;;;;;;;14.03;88.83;102602.66;5041681;28;20376;-69
2023/09/30 07:39:44;;;;;;;17.10;10.00;;;;;;;14.09;89.05;102612.25;5037576;28;20021;-66
2023/09/30 07:42:09;;;;;;;17.70;9.18;;;;;;;14.19;89.13;102610.22;5041784;28;20529;-69
2023/09/30 07:44:37;;;;;;;21.80;11.05;;;;;;;14.34;88.71;102614.25;5041384;28;20040;-67
2023/09/30 07:47:03;;;;;;;24.38;12.05;;;;;;;14.50;88.58;102615.59;5037370;28;20032;-66
2023/09/30 07:49:29;;;;;;;21.38;11.27;;;;;;;14.63;87.97;102609.00;5040145;28;20028;-66
2023/09/30 07:51:54;;;;;;;17.25;10.18;;;;;;;14.84;87.97;102598.66;5040434;28;20025;-67
2023/09/30 07:54:20;;;;;;;21.33;11.32;;;;;;;15.21;88.55;102590.41;5036635;28;20059;-66
2023/09/30 07:56:45;;;;;;;23.52;10.57;;;;;;;15.40;85.98;102596.91;5041809;28;20021;-67
2023/09/30 07:59:10;;;;;;;24.38;10.77;;;;;;;15.46;86.44;102591.34;5039534;28;20057;-67
2023/09/30 08:01:37;;;;;;;24.48;10.68;;;;;;;15.70;84.71;102597.69;5036535;28;20064;-67
2023/09/30 08:04:02;;;;;;;21.83;10.02;;;;;;;15.97;84.02;102593.22;5047874;28;20071;-66
2023/09/30 08:06:28;;;;;;;19.67;9.57;;;;;;;16.16;82.51;102593.44;5038669;28;20414;-67
2023/09/30 08:08:55;;;;;;;19.70;9.35;;;;;;;16.22;82.13;102595.88;5043680;28;20049;-67
2023/09/30 08:11:20;;;;;;;22.60;9.60;;;;;;;16.34;81.56;102594.59;5041695;28;20021;-67
2023/09/30 08:13:46;;;;;;;18.90;9.38;;;;;;;16.75;81.06;102587.75;5037782;28;20067;-67
2023/09/30 08:16:11;;;;;;;23.85;9.73;;;;;;;17.43;78.69;102593.09;5040770;28;20112;-66
2023/09/30 08:18:37;;;;;;;19.75;8.82;;;;;;;17.36;78.18;102581.78;5042108;28;20045;-67
2023/09/30 08:21:02;;;;;;;18.83;8.73;;;;;;;17.66;77.72;102582.31;5042740;28;20029;-67
2023/09/30 08:23:27;;;;;;;15.35;8.07;;;;;;;17.93;77.44;102582.09;5037820;28;20033;-67
2023/09/30 08:25:54;;;;;;;18.73;8.73;;;;;;;18.29;75.30;102580.50;5036152;28;20021;-69
2023/09/30 08:28:20;;;;;;;18.42;7.80;;;;;;;18.64;73.91;102574.44;5036232;28;20083;-70
2023/09/30 08:30:46;;;;;;;15.93;7.50;;;;;;;19.08;72.77;102578.63;5038119;28;20033;-70
2023/09/30 08:33:11;;;;;;;19.02;7.00;;;;;;;19.16;70.91;102575.56;5044142;28;20517;-70
2023/09/30 08:35:40;;;;;;;14.07;7.25;;;;;;;19.42;70.66;102576.09;5050848;28;20024;-71
2023/09/30 08:38:05;;;;;;;16.65;7.28;;;;;;;19.42;69.00;102581.47;5035151;28;20035;-70
2023/09/30 08:40:31;;;;;;;15.98;7.43;;;;;;;19.52;69.15;102572.88;5049913;28;20450;-71
2023/09/30 08:42:56;;;;;;;13.35;7.05;;;;;;;19.84;66.59;102568.59;5043272;28;20060;-70
2023/09/30 08:45:21;;;;;;;15.15;7.28;;;;;;;20.08;65.83;102561.06;5059471;28;20029;-70
2023/09/30 08:47:47;;;;;;;14.43;6.72;;;;;;;20.36;64.92;102565.81;5039175;28;20032;-70
2023/09/30 08:50:13;;;;;;;14.75;6.82;;;;;;;20.77;63.58;102565.41;5046473;28;20017;-70
2023/09/30 08:52:40;;;;;;;17.20;7.30;;;;;;;21.12;62.87;102559.84;5044870;28;20492;-70
2023/09/30 08:55:08;;;;;;;15.38;7.15;;;;;;;21.50;59.99;102563.06;5046822;28;20484;-70
2023/09/30 08:57:41;;;;;;;14.82;6.32;;;;;;;22.17;60.19;102566.22;5045500;28;20401;-70
2023/09/30 09:00:11;;;;;;;9.63;6.20;;;;;;;22.70;57.96;102561.13;5050480;28;20120;-69
2023/09/30 09:02:38;;;;;;;12.50;6.32;;;;;;;22.97;56.25;102561.22;5022387;28;20320;-69
2023/09/30 09:05:04;;;;;;;10.95;6.95;;;;;;;23.25;56.90;102558.41;5036808;28;20087;-69
2023/09/30 09:07:30;;;;;;;13.38;6.75;;;;;;;23.90;54.11;102574.72;5046251;28;20057;-70
2023/09/30 09:10:08;;;;;;;13.18;6.55;;;;;;;24.45;54.90;102580.81;5045515;28;20048;-68
2023/09/30 09:12:36;;;;;;;15.23;6.47;;;;;;;24.92;50.80;102580.09;5047958;28;20059;-69
2023/09/30 09:15:03;;;;;;;18.92;6.78;;;;;;;25.45;49.43;102587.91;5039425;28;20048;-68
2023/09/30 09:17:43;;;;;;;10.63;5.50;;;;;;;25.22;50.14;102595.06;5036275;28;20038;-69
2023/09/30 09:20:20;;;;;;;12.25;5.57;;;;;;;24.38;51.05;102604.72;5037501;28;20030;-69
2023/09/30 09:22:47;;;;;;;14.57;5.28;;;;;;;24.85;49.23;102599.56;5037166;28;20500;-69
2023/09/30 09:25:12;;;;;;;13.27;5.72;;;;;;;25.46;47.98;102595.09;5039792;28;20048;-69
2023/09/30 09:27:38;;;;;;;15.48;5.78;;;;;;;25.73;47.40;102602.94;5039370;28;20551;-69
2023/09/30 09:30:18;;;;;;;13.23;6.38;;;;;;;25.29;50.08;102603.59;5048734;28;20485;-69
2023/09/30 09:32:54;;;;;;;13.73;5.78;;;;;;;26.22;47.58;102626.28;5047862;28;20107;-69
2023/09/30 09:35:20;;;;;;;9.77;5.60;;;;;;;26.55;44.50;102628.19;5049318;28;20513;-69
2023/09/30 09:37:57;;;;;;;13.55;5.38;;;;;;;26.88;45.81;102632.75;5041009;28;20103;-69
2023/09/30 09:40:25;;;;;;;11.55;4.93;;;;;;;27.59;41.93;102630.53;5045107;28;20031;-69
2023/09/30 09:42:53;;;;;;;11.68;4.75;;;;;;;27.96;41.64;102625.56;5036176;28;20500;-69
2023/09/30 09:45:22;;;;;;;8.80;5.00;;;;;;;28.39;39.87;102626.44;5038901;28;20029;-69
2023/09/30 09:47:47;;;;;;;10.15;5.28;;;;;;;28.61;38.59;102625.41;5037025;28;20608;-69
2023/09/30 09:50:13;;;;;;;10.10;5.15;;;;;;;28.77;38.40;102627.63;5052580;28;20144;-69
2023/09/30 09:52:40;;;;;;;11.38;5.43;;;;;;;27.44;40.87;102627.25;5053259;28;20020;-69
2023/09/30 09:55:08;;;;;;;10.18;5.38;;;;;;;27.29;41.81;102627.69;5037958;28;20021;-69
2023/09/30 09:57:34;;;;;;;9.43;4.95;;;;;;;27.45;40.46;102628.09;5038866;28;20074;-67
2023/09/30 10:00:00;;;;;;;11.48;5.25;;;;;;;28.44;38.77;102635.91;5043317;28;20029;-67
2023/09/30 10:02:27;;;;;;;9.57;5.30;;;;;;;28.57;37.99;102638.44;5041554;28;20060;-67
2023/09/30 10:04:53;;;;;;;12.50;5.32;;;;;;;28.94;36.93;102630.56;5037257;28;20028;-67
2023/09/30 10:07:27;;;;;;;9.60;5.18;;;;;;;29.28;37.62;102624.78;5039755;28;20058;-68
2023/09/30 10:09:53;;;;;;;9.85;5.20;;;;;;;29.64;36.75;102634.19;5042815;28;20453;-68
2023/09/30 10:12:21;;;;;;;8.18;4.65;;;;;;;29.54;35.51;102629.72;5035881;28;20021;-68
2023/09/30 10:14:47;;;;;;;10.57;4.93;;;;;;;29.95;35.83;102637.63;5039669;28;20024;-68
2023/09/30 10:17:12;;;;;;;9.80;5.50;;;;;;;30.10;34.65;102637.16;5041417;28;20592;-68
2023/09/30 10:20:06;;;;;;;10.05;5.60;;;;;;;30.19;36.59;102650.81;5036494;28;20065;-67
2023/09/30 10:22:32;;;;;;;11.48;6.00;;;;;;;29.92;35.39;102647.94;5043721;28;20061;-68
2023/09/30 10:24:59;;;;;;;10.35;4.93;;;;;;;29.95;35.87;102650.41;5040182;28;20083;-67
2023/09/30 10:27:24;;;;;;;11.90;6.30;;;;;;;29.92;35.01;102637.03;5019587;28;20037;-67
2023/09/30 10:30:09;;;;;;;8.65;5.50;;;;;;;30.50;36.62;102631.50;5041440;28;20025;-68
2023/09/30 10:32:50;;;;;;;12.85;5.28;;;;;;;31.22;35.47;102621.69;5039623;28;20048;-68
2023/09/30 10:35:17;;;;;;;12.57;6.55;;;;;;;32.09;31.56;102611.94;5046017;28;20132;-67
2023/09/30 10:37:43;;;;;;;12.40;6.95;;;;;;;32.04;32.37;102603.31;5024754;28;20997;-68
2023/09/30 10:40:09;;;;;;;13.55;7.57;;;;;;;31.86;31.08;102600.66;5032636;28;20037;-68
2023/09/30 10:42:49;;;;;;;10.70;6.70;;;;;;;31.64;34.07;102599.22;5032884;28;20021;-68
2023/09/30 10:45:44;;;;;;;12.85;7.70;;;;;;;30.62;36.67;102613.06;5039362;28;20393;-68
2023/09/30 10:48:25;;;;;;;10.18;6.55;;;;;;;29.81;37.06;102602.63;5039364;28;20025;-68
2023/09/30 10:50:56;;;;;;;9.52;6.45;;;;;;;27.97;38.00;102600.09;5032378;28;20056;-68
2023/09/30 10:53:22;;;;;;;10.35;6.93;;;;;;;26.63;40.09;102597.75;5014310;28;20052;-67
2023/09/30 10:55:54;;;;;;;11.43;7.00;;;;;;;25.72;42.57;102601.22;5044203;28;20036;-68
2023/09/30 10:58:20;;;;;;;11.30;6.75;;;;;;;25.18;44.16;102589.03;5037989;28;20020;-67
2023/09/30 11:00:55;;;;;;;12.05;6.70;;;;;;;25.83;44.04;102595.84;5036540;28;20029;-67
2023/09/30 11:03:21;;;;;;;10.25;7.00;;;;;;;25.74;43.98;102588.44;5037638;28;20616;-67
2023/09/30 11:05:48;;;;;;;10.02;8.07;;;;;;;25.73;43.50;102581.25;5053683;28;20107;-67
2023/09/30 11:08:15;;;;;;;8.93;5.47;;;;;;;25.25;42.79;102575.88;5047145;28;20472;-68
2023/09/30 11:10:50;;;;;;;7.68;4.57;;;;;;;24.86;44.59;102583.25;5040744;28;20099;-68
2023/09/30 11:13:17;;;;;;;9.32;5.00;;;;;;;24.66;43.42;102589.22;5037121;28;20499;-68
2023/09/30 11:15:43;;;;;;;8.25;5.20;;;;;;;25.58;42.38;102586.00;5040486;28;20514;-67